sensor_id;sensor_type;location;lat;lon;timestamp;pressure;altitude;pressure_sealevel;temperature;humidity
80851;BME280;70268;50.292;6.666;2023-07-31T00:00:06;96268.28;;;21.25;60.07
80851;BME280;70268;50.292;6.666;2023-07-31T00:02:36;96274.09;;;21.21;60.25
80851;BME280;70268;50.292;6.666;2023-07-31T00:05:05;96260.78;;;21.22;60.08
80851;BME280;70268;50.292;6.666;2023-07-31T00:07:34;96262.03;;;21.26;60.03
80851;BME280;70268;50.292;6.666;2023-07-31T00:10:03;96258.00;;;21.30;59.71
80851;BME280;70268;50.292;6.666;2023-07-31T00:12:31;96258.00;;;21.30;60.08
80851;BME280;70268;50.292;6.666;2023-07-31T00:15:02;96256.31;;;21.23;59.98
80851;BME280;70268;50.292;6.666;2023-07-31T00:17:30;96256.50;;;21.21;60.22
80851;BME280;70268;50.292;6.666;2023-07-31T00:19:59;96256.31;;;21.23;59.98
80851;BME280;70268;50.292;6.666;2023-07-31T00:22:28;96251.41;;;21.13;60.36
80851;BME280;70268;50.292;6.666;2023-07-31T00:24:57;96254.03;;;21.13;60.56
80851;BME280;70268;50.292;6.666;2023-07-31T00:27:26;96251.81;;;21.16;60.15
80851;BME280;70268;50.292;6.666;2023-07-31T00:29:55;96257.47;;;21.13;60.25
80851;BME280;70268;50.292;6.666;2023-07-31T00:32:25;96252.78;;;21.09;60.33
80851;BME280;70268;50.292;6.666;2023-07-31T00:34:53;96251.03;;;21.16;60.34
80851;BME280;70268;50.292;6.666;2023-07-31T00:37:23;96244.13;;;21.15;59.27
80851;BME280;70268;50.292;6.666;2023-07-31T00:39:51;96244.75;;;21.17;60.44
80851;BME280;70268;50.292;6.666;2023-07-31T00:42:21;96241.19;;;21.25;60.18
80851;BME280;70268;50.292;6.666;2023-07-31T00:44:49;96247.81;;;21.21;60.44
80851;BME280;70268;50.292;6.666;2023-07-31T00:47:18;96256.88;;;21.18;60.32
80851;BME280;70268;50.292;6.666;2023-07-31T00:49:48;96249.19;;;21.16;60.42
80851;BME280;70268;50.292;6.666;2023-07-31T00:52:16;96256.66;;;21.13;60.54
80851;BME280;70268;50.292;6.666;2023-07-31T00:54:46;96260.97;;;21.21;60.48
80851;BME280;70268;50.292;6.666;2023-07-31T00:57:14;96245.00;;;21.22;60.59
80851;BME280;70268;50.292;6.666;2023-07-31T00:59:44;96230.81;;;21.23;60.40
80851;BME280;70268;50.292;6.666;2023-07-31T01:02:14;96235.66;;;21.20;60.38
80851;BME280;70268;50.292;6.666;2023-07-31T01:04:44;96246.56;;;21.16;60.65
80851;BME280;70268;50.292;6.666;2023-07-31T01:07:21;96238.09;;;21.21;60.56
80851;BME280;70268;50.292;6.666;2023-07-31T01:09:59;96234.94;;;21.04;60.66
80851;BME280;70268;50.292;6.666;2023-07-31T01:12:31;96231.22;;;21.20;60.60
80851;BME280;70268;50.292;6.666;2023-07-31T01:15:04;96231.22;;;21.20;60.38
80851;BME280;70268;50.292;6.666;2023-07-31T01:17:34;96228.56;;;21.20;60.73
80851;BME280;70268;50.292;6.666;2023-07-31T01:20:05;96221.34;;;21.22;60.36
80851;BME280;70268;50.292;6.666;2023-07-31T01:22:58;96225.50;;;21.10;61.28
80851;BME280;70268;50.292;6.666;2023-07-31T01:25:50;96224.63;;;21.03;61.06
80851;BME280;70268;50.292;6.666;2023-07-31T01:28:27;96225.09;;;21.13;60.92
80851;BME280;70268;50.292;6.666;2023-07-31T01:30:59;96215.59;;;21.12;60.94
80851;BME280;70268;50.292;6.666;2023-07-31T01:33:28;96216.34;;;21.06;60.92
80851;BME280;70268;50.292;6.666;2023-07-31T01:35:57;96221.38;;;21.01;61.01
80851;BME280;70268;50.292;6.666;2023-07-31T01:38:26;96221.84;;;21.11;60.84
80851;BME280;70268;50.292;6.666;2023-07-31T01:40:56;96222.59;;;21.05;60.87
80851;BME280;70268;50.292;6.666;2023-07-31T01:43:25;96218.06;;;21.20;60.89
80851;BME280;70268;50.292;6.666;2023-07-31T01:45:54;96221.72;;;21.19;60.94
80851;BME280;70268;50.292;6.666;2023-07-31T01:48:24;96227.78;;;21.20;61.09
80851;BME280;70268;50.292;6.666;2023-07-31T01:50:52;96217.84;;;21.15;61.04
80851;BME280;70268;50.292;6.666;2023-07-31T01:53:21;96219.97;;;21.05;61.21
80851;BME280;70268;50.292;6.666;2023-07-31T01:55:49;96222.09;;;21.16;61.00
80851;BME280;70268;50.292;6.666;2023-07-31T01:58:19;96215.16;;;21.08;60.89
80851;BME280;70268;50.292;6.666;2023-07-31T02:00:48;96212.34;;;21.10;60.96
80851;BME280;70268;50.292;6.666;2023-07-31T02:03:16;96203.69;;;21.16;61.12
80851;BME280;70268;50.292;6.666;2023-07-31T02:05:46;96204.50;;;21.16;60.84
80851;BME280;70268;50.292;6.666;2023-07-31T02:08:15;96202.44;;;21.12;60.74
80851;BME280;70268;50.292;6.666;2023-07-31T02:10:44;96199.47;;;21.22;60.83
80851;BME280;70268;50.292;6.666;2023-07-31T02:13:12;96191.31;;;21.10;61.10
80851;BME280;70268;50.292;6.666;2023-07-31T02:15:42;96186.25;;;21.08;61.02
80851;BME280;70268;50.292;6.666;2023-07-31T02:18:11;96187.09;;;21.15;61.44
80851;BME280;70268;50.292;6.666;2023-07-31T02:20:39;96186.66;;;21.12;61.72
80851;BME280;70268;50.292;6.666;2023-07-31T02:23:08;96184.59;;;21.36;60.91
80851;BME280;70268;50.292;6.666;2023-07-31T02:25:36;96186.78;;;21.32;61.35
80851;BME280;70268;50.292;6.666;2023-07-31T02:28:05;96189.19;;;21.27;61.45
80851;BME280;70268;50.292;6.666;2023-07-31T02:30:33;96185.31;;;21.23;61.25
80851;BME280;70268;50.292;6.666;2023-07-31T02:33:03;96186.38;;;21.28;61.24
80851;BME280;70268;50.292;6.666;2023-07-31T02:35:32;96187.75;;;21.24;61.22
80851;BME280;70268;50.292;6.666;2023-07-31T02:38:00;96188.75;;;21.23;61.36
80851;BME280;70268;50.292;6.666;2023-07-31T02:40:29;96186.66;;;21.12;61.72
80851;BME280;70268;50.292;6.666;2023-07-31T02:42:58;96186.13;;;21.23;61.68
80851;BME280;70268;50.292;6.666;2023-07-31T02:45:27;96189.19;;;21.27;61.44
80851;BME280;70268;50.292;6.666;2023-07-31T02:47:55;96172.34;;;21.14;61.26
80851;BME280;70268;50.292;6.666;2023-07-31T02:50:25;96175.38;;;21.18;61.59
80851;BME280;70268;50.292;6.666;2023-07-31T02:52:55;96178.00;;;21.18;61.45
80851;BME280;70268;50.292;6.666;2023-07-31T02:55:23;96173.13;;;21.15;61.60
80851;BME280;70268;50.292;6.666;2023-07-31T02:57:52;96168.84;;;21.07;61.30
80851;BME280;70268;50.292;6.666;2023-07-31T03:00:21;96162.59;;;21.08;61.55
80851;BME280;70268;50.292;6.666;2023-07-31T03:02:50;96166.44;;;21.12;61.66
80851;BME280;70268;50.292;6.666;2023-07-31T03:05:18;96165.22;;;21.08;61.87
80851;BME280;70268;50.292;6.666;2023-07-31T03:07:48;96165.84;;;21.10;61.33
80851;BME280;70268;50.292;6.666;2023-07-31T03:10:17;96155.47;;;21.02;61.76
80851;BME280;70268;50.292;6.666;2023-07-31T03:12:46;96158.72;;;21.04;61.32
80851;BME280;70268;50.292;6.666;2023-07-31T03:15:15;96161.56;;;21.09;61.05
80851;BME280;70268;50.292;6.666;2023-07-31T03:17:44;96153.97;;;20.93;62.02
80851;BME280;70268;50.292;6.666;2023-07-31T03:20:12;96152.50;;;21.12;61.56
80851;BME280;70268;50.292;6.666;2023-07-31T03:22:45;96156.28;;;21.03;61.14
80851;BME280;70268;50.292;6.666;2023-07-31T03:25:15;96157.34;;;21.08;61.46
80851;BME280;70268;50.292;6.666;2023-07-31T03:27:44;96152.28;;;21.07;61.69
80851;BME280;70268;50.292;6.666;2023-07-31T03:30:12;96145.34;;;20.99;61.44
80851;BME280;70268;50.292;6.666;2023-07-31T03:32:42;96144.56;;;21.05;61.52
80851;BME280;70268;50.292;6.666;2023-07-31T03:35:10;96145.75;;;21.03;61.71
80851;BME280;70268;50.292;6.666;2023-07-31T03:37:39;96133.41;;;20.96;61.29
80851;BME280;70268;50.292;6.666;2023-07-31T03:40:08;96127.97;;;21.05;61.57
80851;BME280;70268;50.292;6.666;2023-07-31T03:42:38;96130.22;;;21.08;61.60
80851;BME280;70268;50.292;6.666;2023-07-31T03:45:08;96128.63;;;21.07;61.68
80851;BME280;70268;50.292;6.666;2023-07-31T03:47:37;96121.31;;;21.02;61.66
80851;BME280;70268;50.292;6.666;2023-07-31T03:50:06;96123.56;;;21.05;61.76
80851;BME280;70268;50.292;6.666;2023-07-31T03:52:35;96116.44;;;20.99;61.56
80851;BME280;70268;50.292;6.666;2023-07-31T03:55:04;96118.00;;;20.93;61.67
80851;BME280;70268;50.292;6.666;2023-07-31T03:57:33;96115.66;;;21.05;61.45
80851;BME280;70268;50.292;6.666;2023-07-31T04:00:03;96105.72;;;21.01;61.59
80851;BME280;70268;50.292;6.666;2023-07-31T04:02:38;96107.50;;;20.93;61.60
80851;BME280;70268;50.292;6.666;2023-07-31T04:05:07;96103.91;;;21.01;61.30
80851;BME280;70268;50.292;6.666;2023-07-31T04:07:35;96101.59;;;20.91;62.06
80851;BME280;70268;50.292;6.666;2023-07-31T04:10:05;96111.22;;;21.06;61.25
80851;BME280;70268;50.292;6.666;2023-07-31T04:12:33;96109.69;;;20.90;62.00
80851;BME280;70268;50.292;6.666;2023-07-31T04:15:04;96105.28;;;20.97;61.37
80851;BME280;70268;50.292;6.666;2023-07-31T04:17:33;96101.06;;;20.96;61.81
80851;BME280;70268;50.292;6.666;2023-07-31T04:20:01;96097.84;;;21.01;61.55
80851;BME280;70268;50.292;6.666;2023-07-31T04:22:30;96100.81;;;20.91;61.81
80851;BME280;70268;50.292;6.666;2023-07-31T04:24:59;96099.41;;;20.95;62.00
80851;BME280;70268;50.292;6.666;2023-07-31T04:27:27;96098.31;;;20.83;62.11
80851;BME280;70268;50.292;6.666;2023-07-31T04:29:56;96105.16;;;21.05;61.48
80851;BME280;70268;50.292;6.666;2023-07-31T04:32:26;96098.06;;;21.06;61.69
80851;BME280;70268;50.292;6.666;2023-07-31T04:34:56;96103.09;;;21.01;61.83
80851;BME280;70268;50.292;6.666;2023-07-31T04:37:24;96108.34;;;21.01;61.66
80851;BME280;70268;50.292;6.666;2023-07-31T04:39:53;96107.25;;;20.88;62.01
80851;BME280;70268;50.292;6.666;2023-07-31T04:42:21;96106.44;;;20.88;61.94
80851;BME280;70268;50.292;6.666;2023-07-31T04:44:50;96098.63;;;20.94;62.17
80851;BME280;70268;50.292;6.666;2023-07-31T04:47:20;96101.88;;;21.03;61.78
80851;BME280;70268;50.292;6.666;2023-07-31T04:49:49;96105.63;;;20.87;62.01
80851;BME280;70268;50.292;6.666;2023-07-31T04:52:18;96096.19;;;21.28;61.57
80851;BME280;70268;50.292;6.666;2023-07-31T04:54:47;96096.59;;;21.31;61.26
80851;BME280;70268;50.292;6.666;2023-07-31T04:57:15;96094.53;;;21.27;60.93
80851;BME280;70268;50.292;6.666;2023-07-31T04:59:44;96095.06;;;21.15;61.53
80851;BME280;70268;50.292;6.666;2023-07-31T05:02:14;96088.63;;;21.18;60.81
80851;BME280;70268;50.292;6.666;2023-07-31T05:04:43;96082.19;;;21.21;60.94
80851;BME280;70268;50.292;6.666;2023-07-31T05:07:13;96081.72;;;21.17;61.14
80851;BME280;70268;50.292;6.666;2023-07-31T05:09:41;96084.16;;;21.19;61.26
80851;BME280;70268;50.292;6.666;2023-07-31T05:12:10;96077.31;;;21.24;60.77
80851;BME280;70268;50.292;6.666;2023-07-31T05:14:38;96075.66;;;21.10;61.55
80851;BME280;70268;50.292;6.666;2023-07-31T05:17:07;96083.94;;;21.13;61.42
80851;BME280;70268;50.292;6.666;2023-07-31T05:19:35;96077.44;;;21.09;61.08
80851;BME280;70268;50.292;6.666;2023-07-31T05:22:04;96069.03;;;21.21;61.41
80851;BME280;70268;50.292;6.666;2023-07-31T05:24:34;96069.72;;;21.01;61.52
80851;BME280;70268;50.292;6.666;2023-07-31T05:27:03;96069.81;;;21.14;61.71
80851;BME280;70268;50.292;6.666;2023-07-31T05:29:32;96054.50;;;21.25;61.03
80851;BME280;70268;50.292;6.666;2023-07-31T05:32:00;96061.22;;;21.47;60.87
80851;BME280;70268;50.292;6.666;2023-07-31T05:34:29;96061.56;;;21.24;61.38
80851;BME280;70268;50.292;6.666;2023-07-31T05:36:58;96063.34;;;21.17;61.90
80851;BME280;70268;50.292;6.666;2023-07-31T05:39:26;96058.50;;;21.21;61.15
80851;BME280;70268;50.292;6.666;2023-07-31T05:41:56;96054.84;;;21.22;62.33
80851;BME280;70268;50.292;6.666;2023-07-31T05:44:25;96056.09;;;21.26;61.67
80851;BME280;70268;50.292;6.666;2023-07-31T05:46:53;96055.94;;;21.34;61.59
80851;BME280;70268;50.292;6.666;2023-07-31T05:49:22;96055.69;;;21.29;62.01
80851;BME280;70268;50.292;6.666;2023-07-31T05:51:50;96052.88;;;21.30;61.76
80851;BME280;70268;50.292;6.666;2023-07-31T05:54:19;96052.66;;;21.25;61.43
80851;BME280;70268;50.292;6.666;2023-07-31T05:56:47;96047.41;;;21.32;61.01
80851;BME280;70268;50.292;6.666;2023-07-31T05:59:17;96038.31;;;21.28;61.25
80851;BME280;70268;50.292;6.666;2023-07-31T06:01:46;96037.69;;;21.26;61.11
80851;BME280;70268;50.292;6.666;2023-07-31T06:04:14;96041.38;;;21.31;60.79
80851;BME280;70268;50.292;6.666;2023-07-31T06:06:43;96047.63;;;21.30;60.98
80851;BME280;70268;50.292;6.666;2023-07-31T06:09:12;96048.00;;;21.27;60.65
80851;BME280;70268;50.292;6.666;2023-07-31T06:11:41;96041.50;;;21.16;61.01
80851;BME280;70268;50.292;6.666;2023-07-31T06:14:09;96041.94;;;21.27;60.83
80851;BME280;70268;50.292;6.666;2023-07-31T06:16:39;96034.06;;;21.27;60.33
80851;BME280;70268;50.292;6.666;2023-07-31T06:19:08;96037.44;;;21.14;60.67
80851;BME280;70268;50.292;6.666;2023-07-31T06:21:37;96044.16;;;21.23;60.47
80851;BME280;70268;50.292;6.666;2023-07-31T06:24:06;96040.97;;;21.28;60.38
80851;BME280;70268;50.292;6.666;2023-07-31T06:26:34;96037.09;;;21.24;60.20
80851;BME280;70268;50.292;6.666;2023-07-31T06:29:03;96038.09;;;21.23;60.58
80851;BME280;70268;50.292;6.666;2023-07-31T06:31:31;96038.53;;;21.26;60.21
80851;BME280;70268;50.292;6.666;2023-07-31T06:34:01;96018.03;;;21.15;60.30
80851;BME280;70268;50.292;6.666;2023-07-31T06:36:30;96028.59;;;21.28;60.03
80851;BME280;70268;50.292;6.666;2023-07-31T06:38:58;96040.09;;;21.21;60.18
80851;BME280;70268;50.292;6.666;2023-07-31T06:41:27;96048.38;;;21.18;60.25
80851;BME280;70268;50.292;6.666;2023-07-31T06:43:55;96040.31;;;21.26;60.32
80851;BME280;70268;50.292;6.666;2023-07-31T06:46:24;96036.44;;;21.22;60.16
80851;BME280;70268;50.292;6.666;2023-07-31T06:48:52;96040.25;;;21.12;60.37
80851;BME280;70268;50.292;6.666;2023-07-31T06:51:23;96023.75;;;21.25;59.82
80851;BME280;70268;50.292;6.666;2023-07-31T06:53:52;96017.44;;;21.13;60.48
80851;BME280;70268;50.292;6.666;2023-07-31T06:56:21;96018.88;;;21.22;59.56
80851;BME280;70268;50.292;6.666;2023-07-31T06:58:49;96026.75;;;21.22;60.08
80851;BME280;70268;50.292;6.666;2023-07-31T07:01:18;96023.31;;;21.22;60.05
80851;BME280;70268;50.292;6.666;2023-07-31T07:03:46;96029.19;;;21.24;59.97
80851;BME280;70268;50.292;6.666;2023-07-31T07:06:18;96026.78;;;21.29;59.52
80851;BME280;70268;50.292;6.666;2023-07-31T07:08:47;96022.50;;;21.21;59.70
80851;BME280;70268;50.292;6.666;2023-07-31T07:11:16;96022.16;;;21.31;59.60
80851;BME280;70268;50.292;6.666;2023-07-31T07:13:45;96015.84;;;21.25;59.52
80851;BME280;70268;50.292;6.666;2023-07-31T07:16:13;96016.16;;;21.02;60.18
80851;BME280;70268;50.292;6.666;2023-07-31T07:18:42;96009.50;;;21.06;60.10
80851;BME280;70268;50.292;6.666;2023-07-31T07:21:30;96020.84;;;21.07;60.21
80851;BME280;70268;50.292;6.666;2023-07-31T07:24:00;96008.16;;;21.24;59.79
80851;BME280;70268;50.292;6.666;2023-07-31T07:26:28;96010.56;;;20.84;60.44
80851;BME280;70268;50.292;6.666;2023-07-31T07:28:57;96013.84;;;20.86;60.30
80851;BME280;70268;50.292;6.666;2023-07-31T07:31:28;96014.72;;;20.65;60.79
80851;BME280;70268;50.292;6.666;2023-07-31T07:33:57;96011.13;;;21.07;60.15
80851;BME280;70268;50.292;6.666;2023-07-31T07:36:27;96004.88;;;21.15;59.98
80851;BME280;70268;50.292;6.666;2023-07-31T07:38:56;96003.69;;;21.18;59.75
80851;BME280;70268;50.292;6.666;2023-07-31T07:41:26;96004.88;;;21.15;59.91
80851;BME280;70268;50.292;6.666;2023-07-31T07:43:55;95998.84;;;21.21;59.83
80851;BME280;70268;50.292;6.666;2023-07-31T07:46:23;96009.00;;;21.31;59.35
80851;BME280;70268;50.292;6.666;2023-07-31T07:48:53;96004.16;;;21.34;59.46
80851;BME280;70268;50.292;6.666;2023-07-31T07:51:22;96007.19;;;21.31;59.22
80851;BME280;70268;50.292;6.666;2023-07-31T07:53:51;96002.84;;;21.10;59.91
80851;BME280;70268;50.292;6.666;2023-07-31T07:56:19;96002.84;;;21.10;59.85
80851;BME280;70268;50.292;6.666;2023-07-31T07:58:50;95992.78;;;21.21;59.77
80851;BME280;70268;50.292;6.666;2023-07-31T08:01:18;95988.94;;;21.23;59.84
80851;BME280;70268;50.292;6.666;2023-07-31T08:03:47;95993.25;;;21.38;59.47
80851;BME280;70268;50.292;6.666;2023-07-31T08:06:16;95981.03;;;21.23;59.77
80851;BME280;70268;50.292;6.666;2023-07-31T08:08:45;95981.22;;;21.08;60.13
80851;BME280;70268;50.292;6.666;2023-07-31T08:11:14;95982.44;;;21.12;59.99
80851;BME280;70268;50.292;6.666;2023-07-31T08:13:42;95986.03;;;21.05;60.40
80851;BME280;70268;50.292;6.666;2023-07-31T08:16:12;95969.06;;;21.07;60.08
80851;BME280;70268;50.292;6.666;2023-07-31T08:18:41;95970.91;;;21.07;60.14
80851;BME280;70268;50.292;6.666;2023-07-31T08:21:10;95974.72;;;21.11;59.90
80851;BME280;70268;50.292;6.666;2023-07-31T08:23:39;95976.78;;;21.15;59.83
80851;BME280;70268;50.292;6.666;2023-07-31T08:26:07;95982.06;;;21.22;59.40
80851;BME280;70268;50.292;6.666;2023-07-31T08:28:36;95986.72;;;21.27;59.42
80851;BME280;70268;50.292;6.666;2023-07-31T08:31:05;95987.78;;;21.39;59.33
80851;BME280;70268;50.292;6.666;2023-07-31T08:33:35;95983.16;;;21.48;59.11
80851;BME280;70268;50.292;6.666;2023-07-31T08:36:04;95987.22;;;21.64;58.98
80851;BME280;70268;50.292;6.666;2023-07-31T08:38:32;95985.16;;;21.46;58.83
80851;BME280;70268;50.292;6.666;2023-07-31T08:41:03;95982.53;;;21.46;59.36
80851;BME280;70268;50.292;6.666;2023-07-31T08:43:32;95978.69;;;21.42;59.38
80851;BME280;70268;50.292;6.666;2023-07-31T08:46:01;95979.72;;;21.61;59.18
80851;BME280;70268;50.292;6.666;2023-07-31T08:48:31;95970.00;;;21.55;59.70
80851;BME280;70268;50.292;6.666;2023-07-31T08:51:02;95966.16;;;21.64;59.19
80851;BME280;70268;50.292;6.666;2023-07-31T08:53:30;95980.56;;;21.61;59.36
80851;BME280;70268;50.292;6.666;2023-07-31T08:55:59;95971.44;;;21.64;59.56
80851;BME280;70268;50.292;6.666;2023-07-31T08:58:31;95978.72;;;21.62;59.26
80851;BME280;70268;50.292;6.666;2023-07-31T09:01:01;95978.94;;;21.60;59.34
80851;BME280;70268;50.292;6.666;2023-07-31T09:03:34;95977.31;;;21.66;59.58
80851;BME280;70268;50.292;6.666;2023-07-31T09:06:05;95987.63;;;21.54;59.92
80851;BME280;70268;50.292;6.666;2023-07-31T09:08:34;95979.75;;;21.67;59.63
80851;BME280;70268;50.292;6.666;2023-07-31T09:11:03;95983.19;;;21.68;59.71
80851;BME280;70268;50.292;6.666;2023-07-31T09:13:32;95972.66;;;21.68;59.54
80851;BME280;70268;50.292;6.666;2023-07-31T09:16:00;95985.00;;;21.61;59.55
80851;BME280;70268;50.292;6.666;2023-07-31T09:18:29;95978.53;;;21.70;59.82
80851;BME280;70268;50.292;6.666;2023-07-31T09:21:02;95972.84;;;21.73;59.63
80851;BME280;70268;50.292;6.666;2023-07-31T09:23:42;95964.19;;;21.79;59.40
80851;BME280;70268;50.292;6.666;2023-07-31T09:26:28;95963.56;;;21.71;59.58
80851;BME280;70268;50.292;6.666;2023-07-31T09:28:58;95961.53;;;21.66;59.39
80851;BME280;70268;50.292;6.666;2023-07-31T09:31:33;95959.28;;;21.56;59.56
80851;BME280;70268;50.292;6.666;2023-07-31T09:34:06;95950.16;;;21.45;59.31
80851;BME280;70268;50.292;6.666;2023-07-31T09:36:40;95951.16;;;21.38;59.72
80851;BME280;70268;50.292;6.666;2023-07-31T09:39:10;95944.06;;;21.38;59.50
80851;BME280;70268;50.292;6.666;2023-07-31T09:41:42;95942.69;;;21.56;59.79
80851;BME280;70268;50.292;6.666;2023-07-31T09:44:11;95945.16;;;21.71;59.37
80851;BME280;70268;50.292;6.666;2023-07-31T09:46:40;95938.47;;;21.68;59.15
80851;BME280;70268;50.292;6.666;2023-07-31T09:49:11;95939.06;;;21.70;58.88
80851;BME280;70268;50.292;6.666;2023-07-31T09:51:41;95926.50;;;21.65;59.17
80851;BME280;70268;50.292;6.666;2023-07-31T09:54:13;95939.31;;;21.75;59.08
80851;BME280;70268;50.292;6.666;2023-07-31T09:56:43;95937.03;;;21.65;59.14
80851;BME280;70268;50.292;6.666;2023-07-31T09:59:14;95946.34;;;21.68;59.12
80851;BME280;70268;50.292;6.666;2023-07-31T10:01:44;95946.16;;;21.69;59.44
80851;BME280;70268;50.292;6.666;2023-07-31T10:04:13;95951.00;;;21.59;59.34
80851;BME280;70268;50.292;6.666;2023-07-31T10:06:43;95949.78;;;21.62;59.07
80851;BME280;70268;50.292;6.666;2023-07-31T10:09:16;95943.72;;;21.61;58.75
80851;BME280;70268;50.292;6.666;2023-07-31T10:11:48;95940.28;;;21.54;58.99
80851;BME280;70268;50.292;6.666;2023-07-31T10:14:20;95942.69;;;21.62;58.98
80851;BME280;70268;50.292;6.666;2023-07-31T10:16:49;95959.09;;;21.51;58.84
80851;BME280;70268;50.292;6.666;2023-07-31T10:19:19;95940.25;;;21.47;58.87
80851;BME280;70268;50.292;6.666;2023-07-31T10:21:48;95944.91;;;21.45;58.63
80851;BME280;70268;50.292;6.666;2023-07-31T10:24:19;95947.34;;;21.40;58.33
80851;BME280;70268;50.292;6.666;2023-07-31T10:26:48;95951.75;;;21.40;58.73
80851;BME280;70268;50.292;6.666;2023-07-31T10:29:17;95954.00;;;21.43;58.45
80851;BME280;70268;50.292;6.666;2023-07-31T10:31:47;95938.00;;;21.44;58.80
80851;BME280;70268;50.292;6.666;2023-07-31T10:34:16;95939.03;;;21.50;58.67
80851;BME280;70268;50.292;6.666;2023-07-31T10:36:45;95949.34;;;21.38;58.96
80851;BME280;70268;50.292;6.666;2023-07-31T10:39:37;95953.59;;;21.46;59.87
80851;BME280;70268;50.292;6.666;2023-07-31T10:42:10;95955.44;;;21.59;59.92
80851;BME280;70268;50.292;6.666;2023-07-31T10:44:43;95958.91;;;21.66;60.48
80851;BME280;70268;50.292;6.666;2023-07-31T10:47:14;95958.06;;;21.65;60.37
80851;BME280;70268;50.292;6.666;2023-07-31T10:49:45;95960.09;;;21.70;60.76
80851;BME280;70268;50.292;6.666;2023-07-31T10:52:19;95961.78;;;21.84;60.59
80851;BME280;70268;50.292;6.666;2023-07-31T10:57:53;95957.91;;;21.74;60.99
80851;BME280;70268;50.292;6.666;2023-07-31T11:00:25;95975.13;;;21.76;60.83
80851;BME280;70268;50.292;6.666;2023-07-31T11:03:02;95960.16;;;21.77;60.85
80851;BME280;70268;50.292;6.666;2023-07-31T11:05:42;95968.66;;;21.79;60.79
80851;BME280;70268;50.292;6.666;2023-07-31T11:08:13;95960.94;;;21.84;60.83
80851;BME280;70268;50.292;6.666;2023-07-31T11:10:42;95955.31;;;21.94;60.64
80851;BME280;70268;50.292;6.666;2023-07-31T11:13:12;95951.03;;;21.93;60.59
80851;BME280;70268;50.292;6.666;2023-07-31T11:15:41;95948.81;;;22.03;60.58
80851;BME280;70268;50.292;6.666;2023-07-31T11:18:10;95938.88;;;22.05;60.43
80851;BME280;70268;50.292;6.666;2023-07-31T11:20:38;95932.63;;;22.06;60.45
80851;BME280;70268;50.292;6.666;2023-07-31T11:23:09;95935.66;;;22.03;60.65
80851;BME280;70268;50.292;6.666;2023-07-31T11:25:38;95936.44;;;22.03;60.53
80851;BME280;70268;50.292;6.666;2023-07-31T11:28:10;95927.75;;;22.03;60.39
80851;BME280;70268;50.292;6.666;2023-07-31T11:30:41;95922.72;;;21.95;60.51
80851;BME280;70268;50.292;6.666;2023-07-31T11:33:12;95923.91;;;21.99;60.32
80851;BME280;70268;50.292;6.666;2023-07-31T11:35:44;95919.44;;;22.13;60.72
80851;BME280;70268;50.292;6.666;2023-07-31T11:38:21;95907.91;;;22.14;60.35
80851;BME280;70268;50.292;6.666;2023-07-31T11:40:51;95905.06;;;22.15;60.50
80851;BME280;70268;50.292;6.666;2023-07-31T11:43:20;95907.69;;;22.15;60.36
80851;BME280;70268;50.292;6.666;2023-07-31T11:45:52;95901.81;;;22.13;60.32
80851;BME280;70268;50.292;6.666;2023-07-31T11:48:22;95905.66;;;22.11;60.50
80851;BME280;70268;50.292;6.666;2023-07-31T11:50:52;95897.78;;;22.17;60.61
80851;BME280;70268;50.292;6.666;2023-07-31T11:53:26;95905.69;;;22.17;60.54
80851;BME280;70268;50.292;6.666;2023-07-31T11:55:58;95908.50;;;22.09;60.43
80851;BME280;70268;50.292;6.666;2023-07-31T11:58:27;95906.25;;;22.13;60.50
80851;BME280;70268;50.292;6.666;2023-07-31T12:00:58;95913.56;;;22.24;60.74
80851;BME280;70268;50.292;6.666;2023-07-31T12:03:28;95909.72;;;22.13;60.53
80851;BME280;70268;50.292;6.666;2023-07-31T12:05:58;95901.44;;;21.96;60.20
80851;BME280;70268;50.292;6.666;2023-07-31T12:08:26;95904.09;;;21.83;59.80
80851;BME280;70268;50.292;6.666;2023-07-31T12:11:02;95919.25;;;21.81;59.21
80851;BME280;70268;50.292;6.666;2023-07-31T12:13:32;95922.69;;;21.88;59.02
80851;BME280;70268;50.292;6.666;2023-07-31T12:16:04;95912.78;;;21.83;59.15
80851;BME280;70268;50.292;6.666;2023-07-31T12:18:34;95908.13;;;21.85;59.10
80851;BME280;70268;50.292;6.666;2023-07-31T12:21:05;95911.56;;;21.79;58.80
80851;BME280;70268;50.292;6.666;2023-07-31T12:23:36;95907.72;;;21.82;58.88
80851;BME280;70268;50.292;6.666;2023-07-31T12:26:06;95905.69;;;21.91;58.96
80851;BME280;70268;50.292;6.666;2023-07-31T12:28:35;95896.59;;;21.93;58.82
80851;BME280;70268;50.292;6.666;2023-07-31T12:31:08;95913.38;;;21.92;58.72
80851;BME280;70268;50.292;6.666;2023-07-31T12:33:39;95916.22;;;21.97;58.98
80851;BME280;70268;50.292;6.666;2023-07-31T12:36:10;95915.81;;;21.94;59.02
80851;BME280;70268;50.292;6.666;2023-07-31T12:38:39;95921.50;;;22.04;59.09
80851;BME280;70268;50.292;6.666;2023-07-31T12:41:08;95918.03;;;22.10;59.08
80851;BME280;70268;50.292;6.666;2023-07-31T12:43:38;95914.78;;;22.08;59.18
80851;BME280;70268;50.292;6.666;2023-07-31T12:46:08;95921.06;;;22.00;59.42
80851;BME280;70268;50.292;6.666;2023-07-31T12:48:38;95912.38;;;22.00;59.63
80851;BME280;70268;50.292;6.666;2023-07-31T12:51:06;95903.28;;;21.89;59.41
80851;BME280;70268;50.292;6.666;2023-07-31T12:53:35;95902.47;;;21.95;59.77
80851;BME280;70268;50.292;6.666;2023-07-31T12:56:04;95898.41;;;21.93;59.80
80851;BME280;70268;50.292;6.666;2023-07-31T12:58:33;95899.81;;;21.95;59.97
80851;BME280;70268;50.292;6.666;2023-07-31T13:01:01;95895.16;;;22.04;59.63
80851;BME280;70268;50.292;6.666;2023-07-31T13:03:31;95892.72;;;22.09;59.49
80851;BME280;70268;50.292;6.666;2023-07-31T13:06:00;95891.91;;;22.02;59.84
80851;BME280;70268;50.292;6.666;2023-07-31T13:08:29;95893.75;;;21.95;60.01
80851;BME280;70268;50.292;6.666;2023-07-31T13:10:57;95890.09;;;22.02;59.55
80851;BME280;70268;50.292;6.666;2023-07-31T13:13:26;95900.44;;;22.04;59.91
80851;BME280;70268;50.292;6.666;2023-07-31T13:15:56;95901.44;;;21.96;59.51